Silverdale, Kansas
Current Conditions -  °F | °C
As of 12:54 PM on Saturday 25 Oct 2014 (Local Time) from KWLD Reporting Station
Clear Clear  
Wind Chill: 81°   Ceiling: Unl
Heat Index: 82°   Visibility: 10mi
Dew Point: 64°   Wind: 8mph
Humidity: 56%   Direction: 160°SSE
Pressure: 30.07"   Gusts: NA
Location:  37.0955°N, 96.9739°W
Report Text: KWLD 251754Z AUTO 16007KT 10SM CLR 27/18 A3007 RMK AO2 SLP172 T02720178 10272 20144 58007
Loading
Personal Weather Stations






























Interactive Weather Map
Tropical Storm Tracking
New forecast layout! Learn more

10-Day Weather Forecast

Advertisements
Track Severe Weather on mobile